createdAt,value
2016-09-20T00:00:15.775Z,0
2016-09-20T00:01:15.794Z,0
2016-09-20T00:02:15.505Z,0
2016-09-20T00:03:15.840Z,0
2016-09-20T00:04:15.850Z,0
2016-09-20T00:05:15.894Z,0
2016-09-20T00:06:15.604Z,0
2016-09-20T00:07:15.718Z,0
2016-09-20T00:08:15.648Z,0
2016-09-20T00:09:15.036Z,0
2016-09-20T00:10:15.674Z,0
2016-09-20T00:11:15.688Z,0
2016-09-20T00:12:15.409Z,0
2016-09-20T00:13:15.749Z,0
2016-09-20T00:14:15.762Z,0
2016-09-20T00:15:16.105Z,0
2016-09-20T00:16:16.155Z,0
2016-09-20T00:17:16.334Z,0
2016-09-20T00:18:16.264Z,0
2016-09-20T00:19:16.203Z,0
2016-09-20T00:20:16.277Z,0
2016-09-20T00:21:15.901Z,0
2016-09-20T00:22:15.974Z,0
2016-09-20T00:23:16.330Z,0
2016-09-20T00:24:16.319Z,0
2016-09-20T00:25:16.003Z,0
2016-09-20T00:26:16.049Z,0
2016-09-20T00:27:15.740Z,0
2016-09-20T00:28:16.102Z,0
2016-09-20T00:29:16.399Z,0
2016-09-20T00:30:15.795Z,0
2016-09-20T00:31:15.829Z,0
2016-09-20T00:32:15.855Z,0
2016-09-20T00:33:16.494Z,0
2016-09-20T00:34:15.912Z,0
2016-09-20T00:35:15.933Z,0
2016-09-20T00:36:16.577Z,0
2016-09-20T00:37:15.650Z,0
2016-09-20T00:38:15.989Z,0
2016-09-20T00:39:16.317Z,0
2016-09-20T00:40:16.397Z,0
2016-09-20T00:41:16.665Z,0
2016-09-20T00:42:16.813Z,0
2016-09-20T00:43:16.796Z,0
2016-09-20T00:44:16.416Z,0
2016-09-20T00:45:16.816Z,0
2016-09-20T00:46:16.464Z,0
2016-09-20T00:47:16.498Z,0
2016-09-20T00:48:16.876Z,0
2016-09-20T00:49:16.212Z,0
2016-09-20T00:50:16.630Z,0
2016-09-20T00:51:16.556Z,0
2016-09-20T00:52:16.894Z,0
2016-09-20T00:53:16.923Z,0
2016-09-20T00:54:16.627Z,0
2016-09-20T00:55:16.973Z,0
2016-09-20T00:56:16.684Z,0
2016-09-20T00:57:17.055Z,0
2016-09-20T00:58:17.071Z,0
2016-09-20T00:59:16.449Z,0
2016-09-20T01:00:16.780Z,0
2016-09-20T01:01:16.777Z,0
2016-09-20T01:02:17.124Z,0
2016-09-20T01:03:16.865Z,0
2016-09-20T01:04:16.531Z,0
2016-09-20T01:05:17.168Z,0
2016-09-20T01:06:17.212Z,0
2016-09-20T01:07:16.918Z,0
2016-09-20T01:08:17.265Z,0
2016-09-20T01:09:17.335Z,0
2016-09-20T01:10:17.305Z,0
2016-09-20T01:11:16.431Z,0
2016-09-20T01:12:17.330Z,0
2016-09-20T01:13:17.042Z,0
2016-09-20T01:14:17.056Z,0
2016-09-20T01:15:17.079Z,0
2016-09-20T01:16:17.105Z,0
2016-09-20T01:17:16.810Z,0
2016-09-20T01:18:17.460Z,0
2016-09-20T01:19:16.869Z,0
2016-09-20T01:20:17.489Z,0
2016-09-20T01:21:17.267Z,0
2016-09-20T01:22:16.914Z,0
2016-09-20T01:23:17.587Z,0
2016-09-20T01:24:17.278Z,0
2016-09-20T01:25:17.308Z,0
2016-09-20T01:26:17.603Z,0
2016-09-20T01:27:17.020Z,0
2016-09-20T01:28:17.366Z,0
2016-09-20T01:29:17.687Z,0
2016-09-20T01:30:17.385Z,0
2016-09-20T01:31:17.747Z,0
2016-09-20T01:32:17.758Z,0
2016-09-20T01:33:17.817Z,0
2016-09-20T01:34:17.784Z,0
2016-09-20T01:35:17.855Z,0
2016-09-20T01:36:17.525Z,0
2016-09-20T01:37:17.234Z,0
2016-09-20T01:38:17.597Z,0
2016-09-20T01:39:17.900Z,0
2016-09-20T01:40:17.935Z,0
2016-09-20T01:41:18.105Z,0
2016-09-20T01:42:17.981Z,0
2016-09-20T01:43:18.006Z,0
2016-09-20T01:44:17.381Z,0
2016-09-20T01:45:17.424Z,0
2016-09-20T01:46:17.738Z,0
2016-09-20T01:47:17.775Z,0
2016-09-20T01:48:18.108Z,0
2016-09-20T01:49:18.115Z,0
2016-09-20T01:50:17.823Z,0
2016-09-20T01:51:18.158Z,0
2016-09-20T01:52:18.189Z,0
2016-09-20T01:53:17.580Z,0
2016-09-20T01:54:17.910Z,0
2016-09-20T01:55:18.365Z,0
2016-09-20T01:56:18.326Z,0
2016-09-20T01:57:17.359Z,0
2016-09-20T01:58:18.326Z,0
2016-09-20T01:59:18.005Z,0
2016-09-20T02:00:18.052Z,0
2016-09-20T02:01:17.750Z,0
2016-09-20T02:02:18.385Z,0
2016-09-20T02:03:18.168Z,0
2016-09-20T02:04:18.140Z,0
2016-09-20T02:05:17.828Z,0
2016-09-20T02:06:18.627Z,0
2016-09-20T02:07:18.560Z,0
2016-09-20T02:08:18.220Z,0
2016-09-20T02:09:17.608Z,0
2016-09-20T02:10:18.589Z,0
2016-09-20T02:11:18.290Z,0
2016-09-20T02:12:18.297Z,0
2016-09-20T02:13:18.089Z,0
2016-09-20T02:14:18.673Z,0
2016-09-20T02:15:18.118Z,0
2016-09-20T02:16:17.785Z,0
2016-09-20T02:17:18.414Z,0
2016-09-20T02:18:18.106Z,0
2016-09-20T02:19:18.444Z,0
2016-09-20T02:20:18.475Z,0
2016-09-20T02:21:18.895Z,0
2016-09-20T02:22:18.506Z,0
2016-09-20T02:23:18.220Z,0
2016-09-20T02:24:18.534Z,0
2016-09-20T02:25:18.892Z,0
2016-09-20T02:26:18.899Z,0
2016-09-20T02:27:18.096Z,0
2016-09-20T02:28:18.634Z,0
2016-09-20T02:29:18.965Z,0
2016-09-20T02:30:18.358Z,0
2016-09-20T02:31:19.014Z,0
2016-09-20T02:32:18.708Z,0
2016-09-20T02:33:18.746Z,0
2016-09-20T02:34:19.123Z,0
2016-09-20T02:35:19.092Z,0
2016-09-20T02:36:18.552Z,0
2016-09-20T02:37:18.826Z,0
2016-09-20T02:38:18.627Z,0
2016-09-20T02:39:19.165Z,0
2016-09-20T02:40:18.875Z,0
2016-09-20T02:41:18.298Z,0
2016-09-20T02:42:19.254Z,0
2016-09-20T02:43:19.267Z,0
2016-09-20T02:44:19.305Z,0
2016-09-20T02:45:19.318Z,0
2016-09-20T02:46:19.117Z,0
2016-09-20T02:47:19.047Z,0
2016-09-20T02:48:19.117Z,0
2016-09-20T02:49:19.420Z,0
2016-09-20T02:50:19.116Z,0
2016-09-20T02:51:18.812Z,0
2016-09-20T02:52:19.453Z,0
2016-09-20T02:53:19.158Z,0
2016-09-20T02:54:19.192Z,0
2016-09-20T02:55:19.523Z,0
2016-09-20T02:56:19.616Z,0
2016-09-20T02:57:19.620Z,0
2016-09-20T02:58:18.966Z,0
2016-09-20T02:59:19.291Z,0
2016-09-20T03:00:18.992Z,0
2016-09-20T03:01:19.646Z,0
2016-09-20T03:02:19.656Z,0
2016-09-20T03:03:19.699Z,0
2016-09-20T03:04:19.701Z,0
2016-09-20T03:05:19.422Z,0
2016-09-20T03:06:19.136Z,0
2016-09-20T03:07:19.783Z,0
2016-09-20T03:08:19.495Z,0
2016-09-20T03:09:19.811Z,0
2016-09-20T03:10:19.533Z,0
2016-09-20T03:11:19.943Z,0
2016-09-20T03:12:19.873Z,0
2016-09-20T03:13:19.607Z,0
2016-09-20T03:14:19.925Z,0
2016-09-20T03:15:19.952Z,0
2016-09-20T03:16:19.977Z,0
2016-09-20T03:17:19.362Z,0
2016-09-20T03:18:19.998Z,0
2016-09-20T03:19:20.041Z,0
2016-09-20T03:20:20.125Z,0
2016-09-20T03:21:20.096Z,0
2016-09-20T03:22:20.096Z,0
2016-09-20T03:23:19.788Z,0
2016-09-20T03:24:19.811Z,0
2016-09-20T03:25:19.553Z,0
2016-09-20T03:26:19.856Z,0
2016-09-20T03:27:20.191Z,0
2016-09-20T03:28:19.897Z,0
2016-09-20T03:29:19.975Z,0
2016-09-20T03:30:20.388Z,0
2016-09-20T03:31:19.658Z,0
2016-09-20T03:32:52.288Z,0
2016-09-20T03:33:19.721Z,0
2016-09-20T03:34:19.734Z,0
2016-09-20T03:35:20.475Z,0
2016-09-20T03:36:20.409Z,0
2016-09-20T03:37:20.446Z,0
2016-09-20T03:38:20.142Z,0
2016-09-20T03:39:20.157Z,0
2016-09-20T03:40:20.227Z,0
2016-09-20T03:41:20.501Z,0
2016-09-20T03:42:20.201Z,0
2016-09-20T03:43:20.561Z,0
2016-09-20T03:44:20.574Z,0
2016-09-20T03:45:20.578Z,0
2016-09-20T03:46:20.614Z,0
2016-09-20T03:47:20.672Z,0
2016-09-20T03:48:20.634Z,0
2016-09-20T03:49:20.651Z,0
2016-09-20T03:50:20.696Z,0
2016-09-20T03:51:20.730Z,0
2016-09-20T03:52:20.101Z,0
2016-09-20T03:53:20.125Z,0
2016-09-20T03:54:20.751Z,0
2016-09-20T03:55:20.514Z,0
2016-09-20T03:56:20.820Z,0
2016-09-20T03:57:21.088Z,0
2016-09-20T03:58:20.890Z,0
2016-09-20T03:59:20.393Z,0
2016-09-20T04:00:20.571Z,0
2016-09-20T04:01:20.601Z,0
2016-09-20T04:02:20.924Z,0
2016-09-20T04:03:20.165Z,0
2016-09-20T04:04:20.660Z,0
2016-09-20T04:05:20.680Z,0
2016-09-20T04:06:21.035Z,0
2016-09-20T04:07:20.426Z,0
2016-09-20T04:08:21.176Z,0
2016-09-20T04:09:21.208Z,0
2016-09-20T04:10:21.114Z,0
2016-09-20T04:11:21.151Z,0
2016-09-20T04:12:21.140Z,0
2016-09-20T04:13:21.158Z,0
2016-09-20T04:14:20.871Z,0
2016-09-20T04:15:20.878Z,0
2016-09-20T04:16:21.220Z,0
2016-09-20T04:17:20.931Z,0
2016-09-20T04:18:21.050Z,0
2016-09-20T04:19:20.961Z,0
2016-09-20T04:20:20.687Z,0
2016-09-20T04:21:21.022Z,0
2016-09-20T04:22:21.038Z,0
2016-09-20T04:23:20.749Z,0
2016-09-20T04:24:20.782Z,0
2016-09-20T04:25:21.087Z,0
2016-09-20T04:26:20.807Z,0
2016-09-20T04:27:21.451Z,0
2016-09-20T04:28:21.150Z,0
2016-09-20T04:29:20.873Z,0
2016-09-20T04:30:21.194Z,0
2016-09-20T04:31:20.900Z,0
2016-09-20T04:32:21.561Z,0
2016-09-20T04:33:21.378Z,0
2016-09-20T04:34:21.292Z,4
2016-09-20T04:35:21.663Z,4
2016-09-20T04:36:21.329Z,0
2016-09-20T04:37:21.041Z,0
2016-09-20T04:38:21.709Z,4
2016-09-20T04:39:21.696Z,4
2016-09-20T04:40:21.726Z,4
2016-09-20T04:41:21.124Z,4
2016-09-20T04:42:21.151Z,8
2016-09-20T04:43:21.818Z,8
2016-09-20T04:44:21.495Z,12
2016-09-20T04:45:22.077Z,12
2016-09-20T04:46:21.791Z,16
2016-09-20T04:47:21.889Z,16
2016-09-20T04:48:22.125Z,20
2016-09-20T04:49:22.068Z,20
2016-09-20T04:50:21.294Z,24
2016-09-20T04:51:22.065Z,32
2016-09-20T04:52:22.084Z,36
2016-09-20T04:53:22.116Z,40
2016-09-20T04:54:21.770Z,44
2016-09-20T04:55:21.871Z,56
2016-09-20T04:56:21.790Z,64
2016-09-20T04:57:21.834Z,76
2016-09-20T04:58:22.101Z,84
2016-09-20T04:59:22.179Z,92
2016-09-20T05:00:22.144Z,108
2016-09-20T05:01:22.175Z,120
2016-09-20T05:02:21.568Z,132
2016-09-20T05:03:21.788Z,148
2016-09-20T05:04:22.236Z,164
2016-09-20T05:05:21.614Z,180
2016-09-20T05:06:22.285Z,200
2016-09-20T05:07:22.305Z,212
2016-09-20T05:08:22.164Z,236
2016-09-20T05:09:21.845Z,248
2016-09-20T05:10:22.370Z,272
2016-09-20T05:11:22.415Z,288
2016-09-20T05:12:22.200Z,304
2016-09-20T05:13:22.615Z,324
2016-09-20T05:14:22.439Z,380
2016-09-20T05:15:22.473Z,412
2016-09-20T05:16:22.874Z,432
2016-09-20T05:17:21.871Z,460
2016-09-20T05:18:22.531Z,488
2016-09-20T05:19:22.540Z,520
2016-09-20T05:20:21.634Z,544
2016-09-20T05:21:22.752Z,576
2016-09-20T05:22:22.611Z,596
2016-09-20T05:23:22.691Z,624
2016-09-20T05:24:22.333Z,656
2016-09-20T05:25:22.726Z,688
2016-09-20T05:26:22.694Z,732
2016-09-20T05:27:22.183Z,780
2016-09-20T05:28:22.743Z,832
2016-09-20T05:29:22.502Z,880
2016-09-20T05:30:22.457Z,924
2016-09-20T05:31:22.790Z,964
2016-09-20T05:32:22.210Z,1000
2016-09-20T05:33:22.832Z,1040
2016-09-20T05:34:22.876Z,1084
2016-09-20T05:35:22.966Z,1124
2016-09-20T05:36:22.907Z,1160
2016-09-20T05:37:22.643Z,1204
2016-09-20T05:38:22.941Z,1248
2016-09-20T05:39:22.646Z,1304
2016-09-20T05:40:22.789Z,1368
2016-09-20T05:41:23.021Z,1424
2016-09-20T05:42:22.713Z,1480
2016-09-20T05:43:22.718Z,1540
2016-09-20T05:44:22.843Z,1580
2016-09-20T05:45:22.773Z,1612
2016-09-20T05:46:22.766Z,1644
2016-09-20T05:47:23.109Z,1668
2016-09-20T05:48:22.914Z,1704
2016-09-20T05:49:22.941Z,1744
2016-09-20T05:50:23.185Z,1804
2016-09-20T05:51:22.955Z,1848
2016-09-20T05:52:23.226Z,1876
2016-09-20T05:53:22.923Z,1920
2016-09-20T05:54:23.298Z,1972
2016-09-20T05:55:22.976Z,2020
2016-09-20T05:56:23.293Z,2064
2016-09-20T05:57:23.333Z,2116
2016-09-20T05:58:23.029Z,2164
2016-09-20T05:59:23.373Z,2208
2016-09-20T06:00:23.153Z,2256
2016-09-20T06:01:23.422Z,2324
2016-09-20T06:02:23.522Z,2412
2016-09-20T06:03:23.137Z,2496
2016-09-20T06:04:23.151Z,2556
2016-09-20T06:05:23.305Z,2600
2016-09-20T06:06:23.216Z,2640
2016-09-20T06:07:23.217Z,2708
2016-09-20T06:08:23.542Z,2784
2016-09-20T06:09:23.556Z,2852
2016-09-20T06:10:23.289Z,2892
2016-09-20T06:11:23.638Z,2944
2016-09-20T06:12:23.625Z,3008
2016-09-20T06:13:23.372Z,3068
2016-09-20T06:14:23.675Z,3124
2016-09-20T06:15:23.415Z,3180
2016-09-20T06:16:23.391Z,3244
2016-09-20T06:17:23.735Z,3332
2016-09-20T06:18:28.850Z,3388
2016-09-20T06:19:23.485Z,3420
2016-09-20T06:20:23.794Z,3464
2016-09-20T06:21:23.496Z,3520
2016-09-20T06:22:23.544Z,3564
2016-09-20T06:23:23.889Z,3604
2016-09-20T06:24:23.886Z,3636
2016-09-20T06:25:23.971Z,3656
2016-09-20T06:26:23.618Z,3676
2016-09-20T06:27:23.656Z,3696
2016-09-20T06:28:23.964Z,3712
2016-09-20T06:29:23.977Z,3736
2016-09-20T06:30:24.008Z,3792
2016-09-20T06:31:24.013Z,3900
2016-09-20T06:32:23.731Z,4048
2016-09-20T06:33:23.778Z,4208
2016-09-20T06:34:24.105Z,4332
2016-09-20T06:35:23.480Z,4404
2016-09-20T06:36:23.805Z,4464
2016-09-20T06:37:24.144Z,4572
2016-09-20T06:38:24.184Z,4696
2016-09-20T06:39:23.868Z,4808
2016-09-20T06:40:23.900Z,4876
2016-09-20T06:41:24.243Z,4904
2016-09-20T06:42:23.956Z,4932
2016-09-20T06:43:24.274Z,4992
2016-09-20T06:44:24.293Z,5048
2016-09-20T06:45:24.048Z,5084
2016-09-20T06:46:24.450Z,5092
2016-09-20T06:47:24.467Z,5112
2016-09-20T06:48:24.060Z,5188
2016-09-20T06:49:24.133Z,5300
2016-09-20T06:50:24.105Z,5416
2016-09-20T06:51:24.479Z,5520
2016-09-20T06:52:23.837Z,5572
2016-09-20T06:53:24.485Z,5604
2016-09-20T06:54:24.516Z,5636
2016-09-20T06:55:24.221Z,5672
2016-09-20T06:56:24.314Z,5720
2016-09-20T06:57:24.576Z,5780
2016-09-20T06:58:24.320Z,5852
2016-09-20T06:59:24.613Z,5912
2016-09-20T07:00:24.312Z,5972
2016-09-20T07:01:24.687Z,6024
2016-09-20T07:02:24.668Z,6072
2016-09-20T07:03:24.388Z,6096
2016-09-20T07:04:24.734Z,6092
2016-09-20T07:05:24.754Z,6096
2016-09-20T07:06:24.754Z,6148
2016-09-20T07:07:24.498Z,6260
2016-09-20T07:08:24.193Z,6384
2016-09-20T07:09:24.833Z,6504
2016-09-20T07:10:24.863Z,6596
2016-09-20T07:11:24.559Z,6664
2016-09-20T07:12:23.977Z,6724
2016-09-20T07:13:24.994Z,6800
2016-09-20T07:14:24.632Z,6900
2016-09-20T07:15:24.706Z,7032
2016-09-20T07:16:24.980Z,7176
2016-09-20T07:17:25.053Z,7320
2016-09-20T07:18:25.041Z,7472
2016-09-20T07:19:24.741Z,7604
2016-09-20T07:20:24.750Z,7696
2016-09-20T07:21:25.082Z,7748
2016-09-20T07:22:25.130Z,7776
2016-09-20T07:23:25.296Z,7784
2016-09-20T07:24:25.149Z,7792
2016-09-20T07:25:25.687Z,7832
2016-09-20T07:26:25.427Z,7928
2016-09-20T07:27:25.873Z,8064
2016-09-20T07:28:25.450Z,8140
2016-09-20T07:29:25.523Z,8128
2016-09-20T07:30:25.444Z,8124
2016-09-20T07:31:25.153Z,8192
2016-09-20T07:32:24.834Z,8352
2016-09-20T07:33:25.462Z,8564
2016-09-20T07:34:25.685Z,8792
2016-09-20T07:35:25.441Z,9000
2016-09-20T07:36:25.375Z,9180
2016-09-20T07:37:25.434Z,9308
2016-09-20T07:38:25.676Z,9392
2016-09-20T07:39:25.545Z,9448
2016-09-20T07:40:25.711Z,9504
2016-09-20T07:41:25.241Z,9564
2016-09-20T07:42:25.054Z,9636
2016-09-20T07:43:25.583Z,9708
2016-09-20T07:44:25.343Z,9836
2016-09-20T07:45:25.011Z,9980
2016-09-20T07:46:25.380Z,10048
2016-09-20T07:47:25.672Z,10024
2016-09-20T07:48:25.701Z,10032
2016-09-20T07:49:25.110Z,10136
2016-09-20T07:50:25.112Z,10320
2016-09-20T07:51:25.769Z,10504
2016-09-20T07:52:25.779Z,10680
2016-09-20T07:53:25.808Z,10848
2016-09-20T07:54:25.513Z,10968
2016-09-20T07:55:25.283Z,11032
2016-09-20T07:56:25.889Z,11068
2016-09-20T07:57:25.613Z,11112
2016-09-20T07:58:25.619Z,11244
2016-09-20T07:59:25.994Z,11440
2016-09-20T08:00:26.194Z,11648
2016-09-20T08:01:25.993Z,11820
2016-09-20T08:02:25.695Z,11912
2016-09-20T08:03:26.274Z,11976
2016-09-20T08:04:25.748Z,11992
2016-09-20T08:05:26.128Z,11992
2016-09-20T08:06:26.133Z,12008
2016-09-20T08:07:25.903Z,12104
2016-09-20T08:08:26.149Z,12248
2016-09-20T08:09:25.555Z,12352
2016-09-20T08:10:26.213Z,12344
2016-09-20T08:11:25.921Z,12260
2016-09-20T08:12:25.943Z,12180
2016-09-20T08:13:26.293Z,12172
2016-09-20T08:14:26.323Z,12340
2016-09-20T08:15:26.352Z,12576
2016-09-20T08:16:25.719Z,12772
2016-09-20T08:17:25.802Z,12816
2016-09-20T08:18:26.391Z,12724
2016-09-20T08:19:26.435Z,12592
2016-09-20T08:20:26.132Z,12492
2016-09-20T08:21:26.485Z,12512
2016-09-20T08:22:26.603Z,12664
2016-09-20T08:23:26.213Z,12932
2016-09-20T08:24:26.294Z,13008
2016-09-20T08:25:26.605Z,13088
2016-09-20T08:26:26.285Z,13120
2016-09-20T08:27:26.292Z,13100
2016-09-20T08:28:26.322Z,13004
2016-09-20T08:29:26.671Z,12904
2016-09-20T08:30:26.703Z,12880
2016-09-20T08:31:26.717Z,12948
2016-09-20T08:32:26.861Z,13124
2016-09-20T08:33:26.832Z,13316
2016-09-20T08:34:26.895Z,13392
2016-09-20T08:35:26.852Z,13404
2016-09-20T08:36:26.942Z,13364
2016-09-20T08:37:26.552Z,13208
2016-09-20T08:38:26.875Z,13068
2016-09-20T08:39:26.922Z,12964
2016-09-20T08:40:26.944Z,12864
2016-09-20T08:41:26.992Z,12876
2016-09-20T08:42:26.396Z,12928
2016-09-20T08:43:27.015Z,13024
2016-09-20T08:44:27.154Z,13032
2016-09-20T08:45:26.109Z,12964
2016-09-20T08:46:27.122Z,12704
2016-09-20T08:47:26.804Z,12524
2016-09-20T08:48:26.819Z,12268
2016-09-20T08:49:27.164Z,12092
2016-09-20T08:50:27.208Z,11968
2016-09-20T08:51:27.201Z,11828
2016-09-20T08:52:27.224Z,11740
2016-09-20T08:53:27.264Z,11644
2016-09-20T08:54:27.274Z,11920
2016-09-20T08:55:27.454Z,12112
2016-09-20T08:56:27.414Z,12208
2016-09-20T08:57:27.061Z,12104
2016-09-20T08:58:27.452Z,11972
2016-09-20T08:59:27.093Z,12004
2016-09-20T09:00:27.451Z,11884
2016-09-20T09:01:27.465Z,11908
2016-09-20T09:02:27.211Z,11860
2016-09-20T09:03:27.222Z,11644
2016-09-20T09:04:26.955Z,11568
2016-09-20T09:05:27.577Z,11372
2016-09-20T09:06:27.582Z,11332
2016-09-20T09:07:27.302Z,11080
2016-09-20T09:08:27.635Z,11096
2016-09-20T09:09:27.676Z,11088
2016-09-20T09:10:27.683Z,10940
2016-09-20T09:11:27.422Z,10788
2016-09-20T09:12:27.733Z,10468
2016-09-20T09:13:27.464Z,10176
2016-09-20T09:14:27.784Z,10124
2016-09-20T09:15:27.817Z,10032
2016-09-20T09:16:27.852Z,9720
2016-09-20T09:17:27.543Z,9636
2016-09-20T09:18:27.889Z,9564
2016-09-20T09:19:27.664Z,9632
2016-09-20T09:20:27.632Z,9404
2016-09-20T09:21:27.965Z,9284
2016-09-20T09:22:27.993Z,9236
2016-09-20T09:23:28.014Z,8648
2016-09-20T09:24:27.787Z,8264
2016-09-20T09:25:28.064Z,8284
2016-09-20T09:26:28.103Z,8152
2016-09-20T09:27:28.141Z,8292
2016-09-20T09:28:27.834Z,8328
2016-09-20T09:29:28.171Z,8604
2016-09-20T09:30:27.952Z,8696
2016-09-20T09:31:28.292Z,8780
2016-09-20T09:32:28.263Z,8628
2016-09-20T09:33:28.265Z,8620
2016-09-20T09:34:27.988Z,8840
2016-09-20T09:35:28.369Z,9332
2016-09-20T09:36:28.036Z,9420
2016-09-20T09:37:28.154Z,9604
2016-09-20T09:38:28.412Z,9912
2016-09-20T09:39:28.435Z,9940
2016-09-20T09:40:28.143Z,10184
2016-09-20T09:41:28.536Z,10404
2016-09-20T09:42:28.835Z,10656
2016-09-20T09:43:28.524Z,10708
2016-09-20T09:44:27.934Z,10660
2016-09-20T09:45:28.295Z,10488
2016-09-20T09:46:28.781Z,10216
2016-09-20T09:47:28.897Z,10072
2016-09-20T09:48:28.857Z,10192
2016-09-20T09:49:28.828Z,10484
2016-09-20T09:50:28.475Z,10660
2016-09-20T09:51:28.851Z,10596
2016-09-20T09:52:28.851Z,10348
2016-09-20T09:53:28.468Z,9964
2016-09-20T09:54:28.850Z,9508
2016-09-20T09:55:28.203Z,9316
2016-09-20T09:56:28.902Z,9228
2016-09-20T09:57:28.874Z,9308
2016-09-20T09:58:28.598Z,9636
2016-09-20T09:59:28.638Z,9476
2016-09-20T10:00:29.435Z,9404
2016-09-20T10:01:28.417Z,9504
2016-09-20T10:02:28.893Z,9828
2016-09-20T10:03:29.031Z,10232
2016-09-20T10:04:28.940Z,10480
2016-09-20T10:05:29.083Z,10752
2016-09-20T10:06:28.636Z,10884
2016-09-20T10:07:28.902Z,11072
2016-09-20T10:08:29.465Z,11332
2016-09-20T10:09:28.923Z,11492
2016-09-20T10:10:29.054Z,11636
2016-09-20T10:11:29.245Z,11728
2016-09-20T10:12:29.032Z,11860
2016-09-20T10:13:29.104Z,12004
2016-09-20T10:14:28.963Z,12092
2016-09-20T10:15:29.071Z,12056
2016-09-20T10:16:29.364Z,11896
2016-09-20T10:17:29.073Z,11716
2016-09-20T10:18:29.405Z,11484
2016-09-20T10:19:29.452Z,11304
2016-09-20T10:20:29.536Z,11124
2016-09-20T10:21:29.052Z,10984
2016-09-20T10:22:29.533Z,10868
2016-09-20T10:23:29.307Z,10644
2016-09-20T10:24:29.268Z,10476
2016-09-20T10:25:29.635Z,10356
2016-09-20T10:26:29.623Z,10240
2016-09-20T10:27:29.643Z,10116
2016-09-20T10:28:29.358Z,9976
2016-09-20T10:29:29.993Z,9672
2016-09-20T10:30:29.742Z,9204
2016-09-20T10:31:29.750Z,8788
2016-09-20T10:32:29.774Z,8408
2016-09-20T10:33:29.495Z,7932
2016-09-20T10:34:29.555Z,7524
2016-09-20T10:35:29.233Z,7176
2016-09-20T10:36:29.584Z,7064
2016-09-20T10:37:29.902Z,6652
2016-09-20T10:38:29.608Z,6420
2016-09-20T10:39:29.653Z,6280
2016-09-20T10:40:29.352Z,6044
2016-09-20T10:41:29.756Z,5944
2016-09-20T10:42:29.736Z,5672
2016-09-20T10:43:30.176Z,5548
2016-09-20T10:44:29.790Z,5436
2016-09-20T10:45:29.895Z,5616
2016-09-20T10:46:30.198Z,5488
2016-09-20T10:47:30.165Z,5484
2016-09-20T10:48:29.894Z,5444
2016-09-20T10:49:30.205Z,5412
2016-09-20T10:50:30.239Z,5424
2016-09-20T10:51:29.642Z,5440
2016-09-20T10:52:30.285Z,5448
2016-09-20T10:53:30.007Z,5472
2016-09-20T10:54:30.104Z,5456
2016-09-20T10:55:30.061Z,5424
2016-09-20T10:56:30.405Z,5292
2016-09-20T10:57:30.461Z,5336
2016-09-20T10:58:30.131Z,5532
2016-09-20T10:59:30.157Z,5568
2016-09-20T11:00:30.528Z,5576
2016-09-20T11:01:30.222Z,5640
2016-09-20T11:02:30.284Z,5668
2016-09-20T11:03:30.253Z,5548
2016-09-20T11:05:02.396Z,5324
2016-09-20T11:05:30.005Z,5296
2016-09-20T11:06:30.725Z,5224
2016-09-20T11:07:30.366Z,5260
2016-09-20T11:08:30.385Z,5244
2016-09-20T11:09:30.713Z,5244
2016-09-20T11:10:30.443Z,5256
2016-09-20T11:11:30.161Z,5268
2016-09-20T11:12:30.549Z,5296
2016-09-20T11:13:30.506Z,5308
2016-09-20T11:14:30.573Z,5300
2016-09-20T11:15:30.664Z,5296
2016-09-20T11:16:30.611Z,5260
2016-09-20T11:17:31.034Z,5224
2016-09-20T11:18:30.333Z,5164
2016-09-20T11:19:30.354Z,5108
2016-09-20T11:20:31.093Z,5088
2016-09-20T11:21:30.716Z,5028
2016-09-20T11:22:30.756Z,4988
2016-09-20T11:23:30.873Z,5028
2016-09-20T11:24:30.794Z,4920
2016-09-20T11:25:31.108Z,5000
2016-09-20T11:26:30.933Z,5024
2016-09-20T11:27:30.965Z,4984
2016-09-20T11:28:31.189Z,5008
2016-09-20T11:29:31.309Z,5032
2016-09-20T11:30:31.291Z,5044
2016-09-20T11:31:30.942Z,5068
2016-09-20T11:32:30.963Z,5100
2016-09-20T11:33:31.325Z,5124
2016-09-20T11:34:31.351Z,5168
2016-09-20T11:35:31.372Z,5264
2016-09-20T11:36:31.385Z,5252
2016-09-20T11:37:31.400Z,5512
2016-09-20T11:38:30.814Z,5652
2016-09-20T11:39:31.165Z,5732
2016-09-20T11:40:31.504Z,5648
2016-09-20T11:41:31.503Z,5468
2016-09-20T11:42:32.115Z,5428
2016-09-20T11:43:31.261Z,5424
2016-09-20T11:44:30.981Z,5380
2016-09-20T11:45:31.611Z,5372
2016-09-20T11:46:31.015Z,5372
2016-09-20T11:47:31.665Z,5428
2016-09-20T11:48:31.677Z,5420
2016-09-20T11:49:31.722Z,5428
2016-09-20T11:50:31.112Z,5420
2016-09-20T11:51:31.766Z,5408
2016-09-20T11:52:31.782Z,5380
2016-09-20T11:53:31.589Z,5360
2016-09-20T11:54:31.523Z,5312
2016-09-20T11:55:32.064Z,5252
2016-09-20T11:56:31.563Z,5208
2016-09-20T11:57:32.114Z,5180
2016-09-20T11:58:32.155Z,5152
2016-09-20T11:59:32.165Z,5136
2016-09-20T12:00:31.677Z,5152
2016-09-20T12:01:32.128Z,5172
2016-09-20T12:02:32.132Z,5236
2016-09-20T12:03:31.743Z,5268
2016-09-20T12:04:32.123Z,5236
2016-09-20T12:05:32.194Z,5192
2016-09-20T12:06:31.833Z,5192
2016-09-20T12:07:31.862Z,5204
2016-09-20T12:08:32.194Z,5236
2016-09-20T12:09:32.184Z,5288
2016-09-20T12:10:32.252Z,5348
2016-09-20T12:11:32.266Z,5412
2016-09-20T12:12:32.270Z,5448
2016-09-20T12:13:32.257Z,5160
2016-09-20T12:14:32.166Z,5160
2016-09-20T12:15:32.442Z,5624
2016-09-20T12:16:31.955Z,5660
2016-09-20T12:17:32.392Z,5668
2016-09-20T12:18:32.431Z,5676
2016-09-20T12:19:32.161Z,5760
2016-09-20T12:20:32.308Z,5912
2016-09-20T12:21:32.795Z,6044
2016-09-20T12:22:32.205Z,6212
2016-09-20T12:23:32.554Z,6432
2016-09-20T12:24:32.314Z,6664
2016-09-20T12:25:32.282Z,6856
2016-09-20T12:26:32.339Z,7040
2016-09-20T12:27:32.703Z,7244
2016-09-20T12:28:32.672Z,7220
2016-09-20T12:29:32.723Z,7196
2016-09-20T12:30:32.441Z,6988
2016-09-20T12:31:32.741Z,6848
2016-09-20T12:32:32.780Z,6840
2016-09-20T12:33:32.981Z,6900
2016-09-20T12:34:32.961Z,6900
2016-09-20T12:35:32.934Z,6976
2016-09-20T12:36:33.084Z,7124
2016-09-20T12:37:32.320Z,7368
2016-09-20T12:38:32.972Z,7680
2016-09-20T12:39:32.633Z,8052
2016-09-20T12:40:33.023Z,8492
2016-09-20T12:41:32.731Z,8868
2016-09-20T12:42:33.032Z,9136
2016-09-20T12:43:32.722Z,9348
2016-09-20T12:44:33.065Z,9552
2016-09-20T12:45:33.100Z,9820
2016-09-20T12:46:32.909Z,10080
2016-09-20T12:47:32.833Z,10356
2016-09-20T12:48:32.871Z,10424
2016-09-20T12:49:33.199Z,10264
2016-09-20T12:50:32.901Z,9924
2016-09-20T12:51:32.950Z,9672
2016-09-20T12:52:32.942Z,9432
2016-09-20T12:53:32.710Z,9432
2016-09-20T12:54:33.310Z,9396
2016-09-20T12:55:33.337Z,9304
2016-09-20T12:56:33.498Z,9096
2016-09-20T12:58:04.613Z,8640
2016-09-20T12:58:33.322Z,8520
2016-09-20T12:59:33.495Z,8448
2016-09-20T13:00:33.580Z,8524
2016-09-20T13:01:32.936Z,8660
2016-09-20T13:02:33.205Z,8788
2016-09-20T13:03:33.234Z,8752
2016-09-20T13:04:33.070Z,8608
2016-09-20T13:05:33.289Z,8532
2016-09-20T13:06:33.628Z,8680
2016-09-20T13:07:33.670Z,8964
2016-09-20T13:08:33.369Z,9236
2016-09-20T13:09:33.699Z,9388
2016-09-20T13:10:33.521Z,9448
2016-09-20T13:11:33.434Z,9464
2016-09-20T13:12:33.780Z,9524
2016-09-20T13:13:33.481Z,9728
2016-09-20T13:14:33.831Z,10052
2016-09-20T13:15:33.860Z,10332
2016-09-20T13:16:33.563Z,10572
2016-09-20T13:17:33.959Z,10764
2016-09-20T13:18:33.957Z,10788
2016-09-20T13:19:33.658Z,10668
2016-09-20T13:20:33.983Z,10404
2016-09-20T13:21:33.721Z,10216
2016-09-20T13:22:33.726Z,10240
2016-09-20T13:23:34.044Z,10696
2016-09-20T13:24:33.794Z,11312
2016-09-20T13:25:34.105Z,11768
2016-09-20T13:26:33.512Z,11900
2016-09-20T13:27:34.159Z,11992
2016-09-20T13:28:33.899Z,11960
2016-09-20T13:29:33.904Z,11872
2016-09-20T13:30:34.288Z,11656
2016-09-20T13:31:34.299Z,11340
2016-09-20T13:32:34.351Z,11000
2016-09-20T13:33:34.331Z,10596
2016-09-20T13:34:34.343Z,10108
2016-09-20T13:35:34.370Z,9616
2016-09-20T13:37:34.227Z,8264
2016-09-20T13:38:34.473Z,7408
2016-09-20T13:39:34.193Z,5688
2016-09-20T13:40:34.571Z,4812
2016-09-20T13:41:34.225Z,4628
2016-09-20T13:42:34.590Z,4592
2016-09-20T13:43:34.275Z,4588
2016-09-20T13:44:34.302Z,4612